createdAt,value
2023-02-15T02:03:03.977Z,41.30
2023-02-15T02:06:00.217Z,39.50
2023-02-15T02:08:54.219Z,43.23
2023-02-15T02:11:46.960Z,50.15
2023-02-15T02:14:44.023Z,43.77
2023-02-15T02:17:49.370Z,40.87
2023-02-15T02:21:10.135Z,44.33
2023-02-15T02:24:40.966Z,43.90
2023-02-15T02:27:46.115Z,41.53
2023-02-15T02:31:13.202Z,44.13
2023-02-15T02:34:18.395Z,42.40
2023-02-15T02:37:23.927Z,47.45
2023-02-15T02:40:35.395Z,45.03
2023-02-15T02:43:36.679Z,48.00
2023-02-15T02:46:37.228Z,50.37
2023-02-15T02:49:42.054Z,48.40
2023-02-15T02:52:44.889Z,48.87
2023-02-15T02:55:42.363Z,48.70
2023-02-15T02:58:44.940Z,52.37
2023-02-15T03:01:43.234Z,52.07
2023-02-15T03:04:41.837Z,66.00
2023-02-15T03:07:37.976Z,55.70
2023-02-15T03:10:34.827Z,60.77
2023-02-15T03:13:28.043Z,52.43
2023-02-15T03:16:28.321Z,44.13
2023-02-15T03:19:22.083Z,55.77
2023-02-15T03:22:17.402Z,50.80
2023-02-15T03:25:13.528Z,48.87
2023-02-15T03:28:07.641Z,50.27
2023-02-15T03:31:01.998Z,45.30
2023-02-15T03:33:56.191Z,47.63
2023-02-15T03:36:49.885Z,46.40
2023-02-15T03:39:47.654Z,47.37
2023-02-15T07:33:46.154Z,53.13
2023-02-15T07:41:28.378Z,49.63
2023-02-15T07:44:45.594Z,50.70
2023-02-15T07:52:29.602Z,48.57
2023-02-15T07:56:11.098Z,49.77
2023-02-15T08:12:28.520Z,42.60
2023-02-15T08:20:33.592Z,42.50
2023-02-15T09:33:56.912Z,32.97
2023-02-15T09:37:38.034Z,32.37
2023-02-15T09:57:43.205Z,28.70
2023-02-15T10:01:30.379Z,31.60
2023-02-15T11:29:59.607Z,28.80
2023-02-15T11:42:35.429Z,27.87
2023-02-15T13:55:37.587Z,26.23
2023-02-15T13:59:26.821Z,24.37
2023-02-15T14:03:18.410Z,24.30
2023-02-15T14:06:39.611Z,25.00
2023-02-15T14:18:26.081Z,24.90
2023-02-15T14:22:22.513Z,23.60
2023-02-15T14:31:42.526Z,24.37
2023-02-15T14:38:57.482Z,24.40
2023-02-15T14:42:50.787Z,23.83
2023-02-15T14:54:28.281Z,22.83
2023-02-15T14:58:25.764Z,21.97
2023-02-15T15:01:38.368Z,21.03
2023-02-15T15:04:34.306Z,22.93
2023-02-15T15:07:46.969Z,22.27
2023-02-15T15:11:09.171Z,22.70
2023-02-15T15:19:16.367Z,24.90
2023-02-15T15:22:41.192Z,23.50
2023-02-15T15:30:49.570Z,25.73
2023-02-15T15:34:38.426Z,27.37
2023-02-15T15:41:55.075Z,24.93
2023-02-15T15:45:39.997Z,23.10
2023-02-15T15:48:58.046Z,22.97
2023-02-15T15:51:56.555Z,22.90
2023-02-15T15:55:11.223Z,23.90
2023-02-15T15:58:30.353Z,20.93
2023-02-15T16:05:23.544Z,23.07
2023-02-15T16:08:52.151Z,24.10
2023-02-15T16:11:53.635Z,24.57
2023-02-15T16:14:55.152Z,24.13
2023-02-15T16:18:14.891Z,22.77
2023-02-15T16:21:17.794Z,21.43
2023-02-15T16:24:37.743Z,23.80
2023-02-15T16:27:50.954Z,22.57
2023-02-15T16:34:38.023Z,20.90
2023-02-15T16:37:43.710Z,21.10
2023-02-15T16:41:03.409Z,22.83
2023-02-15T16:44:31.758Z,21.33
2023-02-15T16:47:34.837Z,20.40
2023-02-15T16:51:10.155Z,20.70
2023-02-15T16:54:26.997Z,20.93
2023-02-15T16:57:40.178Z,21.03
2023-02-15T17:00:51.205Z,20.53
2023-02-15T17:03:45.773Z,37.13
2023-02-15T17:06:38.931Z,21.70
2023-02-15T17:09:43.803Z,21.17
2023-02-15T17:16:42.502Z,22.40
2023-02-15T17:20:00.901Z,22.53
2023-02-15T17:23:15.631Z,19.77
2023-02-15T17:26:53.677Z,22.87
2023-02-15T17:30:06.620Z,20.83
2023-02-15T17:33:04.037Z,17.97
2023-02-15T17:36:22.920Z,22.17
2023-02-15T17:39:35.275Z,26.00
2023-02-15T17:42:54.185Z,17.83
2023-02-15T17:46:21.857Z,19.10
2023-02-15T17:49:29.062Z,16.37
2023-02-15T17:52:33.412Z,17.50
2023-02-15T17:55:49.214Z,17.47
2023-02-15T17:58:48.483Z,18.23
2023-02-15T18:01:57.286Z,18.43
2023-02-15T18:05:06.491Z,18.57
2023-02-15T18:08:26.276Z,23.30
2023-02-15T18:11:43.546Z,34.67
2023-02-15T18:14:58.974Z,21.67
2023-02-15T18:21:23.375Z,16.87
2023-02-15T18:28:19.486Z,19.23
2023-02-15T18:31:35.817Z,18.33
2023-02-15T18:34:49.853Z,19.53
2023-02-15T18:37:46.503Z,19.43
2023-02-15T18:40:48.441Z,23.23
2023-02-15T18:44:01.502Z,23.87
2023-02-15T18:47:15.220Z,21.90
2023-02-15T18:50:22.190Z,24.63
2023-02-15T18:53:44.498Z,23.47
2023-02-15T18:56:49.538Z,23.83
2023-02-15T18:59:54.529Z,24.10
2023-02-15T20:52:07.170Z,37.63
2023-02-15T20:54:56.737Z,29.33
2023-02-15T21:14:01.891Z,35.10
2023-02-15T21:16:53.405Z,37.70
2023-02-15T21:34:59.363Z,29.50
2023-02-15T21:37:50.311Z,28.63
2023-02-15T21:40:39.209Z,28.17
2023-02-15T21:43:44.778Z,28.53
2023-02-15T21:46:50.379Z,29.10
2023-02-15T21:49:38.800Z,26.23
2023-02-15T21:52:27.474Z,26.07
2023-02-15T21:55:16.531Z,22.27
2023-02-15T21:58:06.664Z,25.47
2023-02-15T22:00:56.604Z,23.60
2023-02-15T22:03:45.207Z,24.03
2023-02-15T22:06:33.496Z,26.73
2023-02-15T22:09:25.708Z,24.33
2023-02-15T22:12:17.110Z,25.57
2023-02-15T22:15:06.526Z,25.20
2023-02-15T22:17:55.400Z,27.40
2023-02-15T22:20:43.649Z,30.95
2023-02-15T22:23:32.219Z,28.80
2023-02-15T22:26:25.367Z,28.60
2023-02-15T22:29:17.881Z,29.30
2023-02-15T22:32:07.779Z,30.30
2023-02-15T22:34:56.686Z,27.83
2023-02-15T22:37:46.007Z,28.13
2023-02-15T22:40:36.224Z,27.67
2023-02-15T22:43:36.492Z,28.07
2023-02-15T22:46:27.765Z,25.40
2023-02-15T22:49:16.748Z,27.47
2023-02-15T22:52:11.693Z,26.57
2023-02-15T22:55:00.765Z,33.58
2023-02-15T22:57:54.456Z,31.47
2023-02-15T23:00:45.260Z,31.13
2023-02-15T23:03:34.682Z,34.13
2023-02-15T23:06:23.476Z,26.43
2023-02-15T23:09:11.887Z,29.23
2023-02-15T23:12:01.607Z,27.23
2023-02-15T23:14:50.193Z,28.10
2023-02-15T23:17:41.408Z,28.80
2023-02-15T23:20:29.676Z,27.67
2023-02-15T23:23:19.424Z,28.93
2023-02-15T23:26:17.204Z,28.33
2023-02-15T23:29:13.690Z,34.90
2023-02-15T23:32:05.249Z,32.37
2023-02-15T23:34:55.265Z,29.67
2023-02-15T23:37:44.782Z,29.23
2023-02-15T23:40:50.695Z,27.47
2023-02-15T23:43:40.655Z,27.60
2023-02-15T23:46:33.753Z,29.10
2023-02-15T23:49:21.941Z,27.90
2023-02-15T23:52:12.900Z,28.50
2023-02-15T23:55:01.309Z,28.63
2023-02-15T23:57:50.751Z,27.40
